sensor_id;sensor_type;location;lat;lon;timestamp;pressure;altitude;pressure_sealevel;temperature;humidity
37852;BME280;23691;52.486;4.650;2023-06-14T00:01:00;101660.44;;;22.08;50.35
37852;BME280;23691;52.486;4.650;2023-06-14T00:03:29;101671.19;;;22.03;50.41
37852;BME280;23691;52.486;4.650;2023-06-14T00:05:57;101656.09;;;22.00;50.74
37852;BME280;23691;52.486;4.650;2023-06-14T00:08:22;101664.28;;;22.00;50.41
37852;BME280;23691;52.486;4.650;2023-06-14T00:10:50;101664.94;;;21.96;50.35
37852;BME280;23691;52.486;4.650;2023-06-14T00:13:15;101664.53;;;21.92;50.53
37852;BME280;23691;52.486;4.650;2023-06-14T00:15:41;101662.25;;;21.89;50.73
37852;BME280;23691;52.486;4.650;2023-06-14T00:18:08;101672.97;;;21.84;50.65
37852;BME280;23691;52.486;4.650;2023-06-14T00:20:35;101657.91;;;21.81;50.56
37852;BME280;23691;52.486;4.650;2023-06-14T00:23:01;101665.25;;;21.81;50.73
37852;BME280;23691;52.486;4.650;2023-06-14T00:25:27;101658.13;;;21.80;50.70
37852;BME280;23691;52.486;4.650;2023-06-14T00:27:54;101667.78;;;21.76;50.94
37852;BME280;23691;52.486;4.650;2023-06-14T00:30:19;101666.75;;;21.70;51.19
37852;BME280;23691;52.486;4.650;2023-06-14T00:32:46;101664.47;;;21.67;51.21
37852;BME280;23691;52.486;4.650;2023-06-14T00:35:12;101662.19;;;21.64;50.64
37852;BME280;23691;52.486;4.650;2023-06-14T00:37:38;101663.25;;;21.63;50.84
37852;BME280;23691;52.486;4.650;2023-06-14T00:40:04;101663.47;;;21.61;50.78
37852;BME280;23691;52.486;4.650;2023-06-14T00:42:31;101666.41;;;21.60;50.69
37852;BME280;23691;52.486;4.650;2023-06-14T00:44:57;101666.03;;;21.56;50.67
37852;BME280;23691;52.486;4.650;2023-06-14T00:47:25;101665.59;;;21.53;50.44
37852;BME280;23691;52.486;4.650;2023-06-14T00:49:53;101661.66;;;21.49;50.22
37852;BME280;23691;52.486;4.650;2023-06-14T00:52:20;101666.69;;;21.45;50.76
37852;BME280;23691;52.486;4.650;2023-06-14T00:54:48;101668.78;;;21.43;50.54
37852;BME280;23691;52.486;4.650;2023-06-14T00:57:14;101663.13;;;21.38;50.61
37852;BME280;23691;52.486;4.650;2023-06-14T00:59:45;101669.41;;;21.38;50.34
37852;BME280;23691;52.486;4.650;2023-06-14T01:02:14;101667.31;;;21.34;50.76
37852;BME280;23691;52.486;4.650;2023-06-14T01:04:41;101669.44;;;21.32;50.76
37852;BME280;23691;52.486;4.650;2023-06-14T01:07:25;101670.72;;;21.29;51.05
37852;BME280;23691;52.486;4.650;2023-06-14T01:14:55;101671.38;;;21.18;50.94
37852;BME280;23691;52.486;4.650;2023-06-14T01:17:22;101661.38;;;21.05;51.01
37852;BME280;23691;52.486;4.650;2023-06-14T01:19:48;101671.63;;;21.10;50.76
37852;BME280;23691;52.486;4.650;2023-06-14T01:22:14;101663.22;;;21.11;50.32
37852;BME280;23691;52.486;4.650;2023-06-14T01:24:40;101667.84;;;21.11;50.46
37852;BME280;23691;52.486;4.650;2023-06-14T01:27:11;101667.00;;;21.10;50.13
37852;BME280;23691;52.486;4.650;2023-06-14T01:29:37;101670.16;;;21.07;50.46
37852;BME280;23691;52.486;4.650;2023-06-14T01:32:04;101665.13;;;21.04;50.29
37852;BME280;23691;52.486;4.650;2023-06-14T01:34:31;101665.13;;;21.04;50.46
37852;BME280;23691;52.486;4.650;2023-06-14T01:36:57;101668.09;;;21.02;50.22
37852;BME280;23691;52.486;4.650;2023-06-14T01:39:26;101670.81;;;21.02;50.37
37852;BME280;23691;52.486;4.650;2023-06-14T01:41:53;101668.72;;;20.98;50.45
37852;BME280;23691;52.486;4.650;2023-06-14T01:44:18;101666.44;;;20.95;50.06
37852;BME280;23691;52.486;4.650;2023-06-14T01:46:45;101667.47;;;20.94;49.93
37852;BME280;23691;52.486;4.650;2023-06-14T01:49:11;101663.28;;;20.91;50.12
37852;BME280;23691;52.486;4.650;2023-06-14T01:51:37;101664.56;;;20.89;49.92
37852;BME280;23691;52.486;4.650;2023-06-14T01:54:03;101662.06;;;20.87;49.80
37852;BME280;23691;52.486;4.650;2023-06-14T01:56:28;101663.34;;;20.85;49.88
37852;BME280;23691;52.486;4.650;2023-06-14T01:58:54;101664.56;;;20.82;49.51
37852;BME280;23691;52.486;4.650;2023-06-14T02:01:20;101665.63;;;20.81;49.36
37852;BME280;23691;52.486;4.650;2023-06-14T02:03:47;101663.34;;;20.78;49.57
37852;BME280;23691;52.486;4.650;2023-06-14T02:06:14;101665.44;;;20.76;49.79
37852;BME280;23691;52.486;4.650;2023-06-14T02:08:41;101668.34;;;20.74;49.54
37852;BME280;23691;52.486;4.650;2023-06-14T02:11:08;101666.06;;;20.71;49.33
37852;BME280;23691;52.486;4.650;2023-06-14T02:13:34;101662.72;;;20.69;49.25
37852;BME280;23691;52.486;4.650;2023-06-14T02:16:00;101662.94;;;20.68;49.41
37852;BME280;23691;52.486;4.650;2023-06-14T02:18:26;101654.34;;;20.64;49.54
37852;BME280;23691;52.486;4.650;2023-06-14T02:20:51;101658.97;;;20.64;49.45
37852;BME280;23691;52.486;4.650;2023-06-14T02:23:17;101655.84;;;20.60;49.65
37852;BME280;23691;52.486;4.650;2023-06-14T02:25:43;101651.63;;;20.57;49.83
37852;BME280;23691;52.486;4.650;2023-06-14T02:28:10;101648.09;;;20.57;49.83
37852;BME280;23691;52.486;4.650;2023-06-14T02:30:35;101653.94;;;20.54;49.57
37852;BME280;23691;52.486;4.650;2023-06-14T02:33:01;101656.84;;;20.52;49.92
37852;BME280;23691;52.486;4.650;2023-06-14T02:35:27;101649.34;;;20.48;49.94
37852;BME280;23691;52.486;4.650;2023-06-14T02:37:53;101656.88;;;20.46;49.56
37852;BME280;23691;52.486;4.650;2023-06-14T02:40:19;101656.00;;;20.45;49.97
37852;BME280;23691;52.486;4.650;2023-06-14T02:42:45;101649.97;;;20.43;49.59
37852;BME280;23691;52.486;4.650;2023-06-14T02:45:11;101656.88;;;20.39;50.13
37852;BME280;23691;52.486;4.650;2023-06-14T02:47:36;101656.47;;;20.35;49.86
37852;BME280;23691;52.486;4.650;2023-06-14T02:50:02;101658.94;;;20.30;49.62
37852;BME280;23691;52.486;4.650;2023-06-14T02:52:28;101661.88;;;20.29;49.92
37852;BME280;23691;52.486;4.650;2023-06-14T02:54:54;101662.31;;;20.26;50.08
37852;BME280;23691;52.486;4.650;2023-06-14T02:57:21;101661.88;;;20.22;50.35
37852;BME280;23691;52.486;4.650;2023-06-14T02:59:46;101663.97;;;20.20;50.03
37852;BME280;23691;52.486;4.650;2023-06-14T03:02:12;101660.63;;;20.18;49.94
37852;BME280;23691;52.486;4.650;2023-06-14T03:04:37;101679.03;;;20.16;49.94
37852;BME280;23691;52.486;4.650;2023-06-14T03:07:04;101677.56;;;20.13;50.26
37852;BME280;23691;52.486;4.650;2023-06-14T03:09:36;101673.38;;;20.11;50.24
37852;BME280;23691;52.486;4.650;2023-06-14T03:12:03;101684.44;;;20.09;50.50
37852;BME280;23691;52.486;4.650;2023-06-14T03:14:29;101687.34;;;20.08;50.23
37852;BME280;23691;52.486;4.650;2023-06-14T03:16:56;101685.25;;;20.03;51.00
37852;BME280;23691;52.486;4.650;2023-06-14T03:19:22;101683.59;;;20.02;50.86
37852;BME280;23691;52.486;4.650;2023-06-14T03:21:48;101695.28;;;20.03;50.24
37852;BME280;23691;52.486;4.650;2023-06-14T03:24:15;101691.75;;;20.02;50.63
37852;BME280;23691;52.486;4.650;2023-06-14T03:26:42;101696.53;;;20.00;51.13
37852;BME280;23691;52.486;4.650;2023-06-14T03:29:07;101706.78;;;19.98;50.93
37852;BME280;23691;52.486;4.650;2023-06-14T03:31:34;101706.16;;;19.96;50.38
37852;BME280;23691;52.486;4.650;2023-06-14T03:34:02;101712.19;;;19.98;50.95
37852;BME280;23691;52.486;4.650;2023-06-14T03:36:27;101704.28;;;19.97;51.03
37852;BME280;23691;52.486;4.650;2023-06-14T03:38:53;101713.25;;;19.97;51.03
37852;BME280;23691;52.486;4.650;2023-06-14T03:41:20;101711.78;;;19.94;50.61
37852;BME280;23691;52.486;4.650;2023-06-14T03:43:46;101711.16;;;19.92;50.57
37852;BME280;23691;52.486;4.650;2023-06-14T03:46:12;101723.06;;;19.91;50.65
37852;BME280;23691;52.486;4.650;2023-06-14T03:48:37;101718.25;;;19.87;50.94
37852;BME280;23691;52.486;4.650;2023-06-14T03:51:04;101712.19;;;19.85;51.48
37852;BME280;23691;52.486;4.650;2023-06-14T03:53:30;101715.97;;;19.84;51.53
37852;BME280;23691;52.486;4.650;2023-06-14T03:55:57;101719.69;;;19.83;51.66
37852;BME280;23691;52.486;4.650;2023-06-14T03:58:23;101718.03;;;19.82;51.52
37852;BME280;23691;52.486;4.650;2023-06-14T04:00:48;101719.69;;;19.83;51.67
37852;BME280;23691;52.486;4.650;2023-06-14T04:03:16;101723.25;;;19.83;51.44
37852;BME280;23691;52.486;4.650;2023-06-14T04:05:42;101725.97;;;19.83;51.58
37852;BME280;23691;52.486;4.650;2023-06-14T04:08:08;101720.53;;;19.83;51.03
37852;BME280;23691;52.486;4.650;2023-06-14T04:10:40;101732.63;;;19.81;51.23
37852;BME280;23691;52.486;4.650;2023-06-14T04:13:06;101724.50;;;19.81;51.43
37852;BME280;23691;52.486;4.650;2023-06-14T04:15:32;101738.28;;;19.79;52.02
37852;BME280;23691;52.486;4.650;2023-06-14T04:17:58;101735.34;;;19.81;51.27
37852;BME280;23691;52.486;4.650;2023-06-14T04:20:24;101744.97;;;19.83;51.03
37852;BME280;23691;52.486;4.650;2023-06-14T04:22:51;101737.47;;;19.85;51.18
37852;BME280;23691;52.486;4.650;2023-06-14T04:25:18;101741.63;;;19.88;51.10
37852;BME280;23691;52.486;4.650;2023-06-14T04:27:44;101739.75;;;19.88;51.13
37852;BME280;23691;52.486;4.650;2023-06-14T04:30:09;101740.63;;;19.89;51.39
37852;BME280;23691;52.486;4.650;2023-06-14T04:32:35;101746.06;;;19.89;51.25
37852;BME280;23691;52.486;4.650;2023-06-14T04:35:08;101742.28;;;19.90;51.70
37852;BME280;23691;52.486;4.650;2023-06-14T04:37:37;101746.47;;;19.92;51.75
37852;BME280;23691;52.486;4.650;2023-06-14T04:40:10;101740.84;;;19.94;51.65
37852;BME280;23691;52.486;4.650;2023-06-14T04:42:35;101746.91;;;19.96;52.15
37852;BME280;23691;52.486;4.650;2023-06-14T04:45:03;101742.31;;;19.97;51.64
37852;BME280;23691;52.486;4.650;2023-06-14T04:47:29;101737.69;;;19.97;51.99
37852;BME280;23691;52.486;4.650;2023-06-14T04:49:57;101741.88;;;20.00;52.00
37852;BME280;23691;52.486;4.650;2023-06-14T04:52:23;101739.81;;;20.02;51.93
37852;BME280;23691;52.486;4.650;2023-06-14T04:54:52;101746.31;;;20.14;51.68
37852;BME280;23691;52.486;4.650;2023-06-14T04:57:19;101742.13;;;20.25;51.49
37852;BME280;23691;52.486;4.650;2023-06-14T04:59:48;101743.44;;;20.35;51.46
37852;BME280;23691;52.486;4.650;2023-06-14T05:02:14;101746.75;;;20.44;51.44
37852;BME280;23691;52.486;4.650;2023-06-14T05:04:41;101744.06;;;20.51;51.11
37852;BME280;23691;52.486;4.650;2023-06-14T05:07:15;101741.34;;;20.57;51.04
37852;BME280;23691;52.486;4.650;2023-06-14T05:09:41;101749.75;;;20.63;50.93
37852;BME280;23691;52.486;4.650;2023-06-14T05:12:07;101750.16;;;20.73;50.62
37852;BME280;23691;52.486;4.650;2023-06-14T05:14:36;101745.56;;;20.80;50.28
37852;BME280;23691;52.486;4.650;2023-06-14T05:17:02;101741.78;;;20.88;50.44
37852;BME280;23691;52.486;4.650;2023-06-14T05:19:40;101750.13;;;20.99;50.46
37852;BME280;23691;52.486;4.650;2023-06-14T05:22:07;101756.59;;;21.05;50.77
37852;BME280;23691;52.486;4.650;2023-06-14T05:24:35;101755.75;;;21.11;50.97
37852;BME280;23691;52.486;4.650;2023-06-14T05:27:07;101756.56;;;21.18;51.01
37852;BME280;23691;52.486;4.650;2023-06-14T05:29:36;101751.75;;;21.27;50.67
37852;BME280;23691;52.486;4.650;2023-06-14T05:32:06;101760.72;;;21.34;50.39
37852;BME280;23691;52.486;4.650;2023-06-14T05:34:34;101758.63;;;21.43;50.14
37852;BME280;23691;52.486;4.650;2023-06-14T05:37:07;101751.69;;;21.54;50.26
37852;BME280;23691;52.486;4.650;2023-06-14T05:39:33;101756.69;;;21.63;49.94
37852;BME280;23691;52.486;4.650;2023-06-14T05:41:58;101755.59;;;21.71;49.61
37852;BME280;23691;52.486;4.650;2023-06-14T05:44:39;101752.63;;;21.79;49.40
37852;BME280;23691;52.486;4.650;2023-06-14T05:47:06;101754.91;;;21.82;49.94
37852;BME280;23691;52.486;4.650;2023-06-14T05:49:32;101766.38;;;21.91;49.47
37852;BME280;23691;52.486;4.650;2023-06-14T05:52:04;101754.41;;;21.99;49.34
37852;BME280;23691;52.486;4.650;2023-06-14T05:54:33;101761.28;;;22.08;48.77
37852;BME280;23691;52.486;4.650;2023-06-14T05:56:59;101758.28;;;22.16;48.99
37852;BME280;23691;52.486;4.650;2023-06-14T05:59:27;101761.38;;;22.26;48.71
37852;BME280;23691;52.486;4.650;2023-06-14T06:01:53;101764.91;;;22.34;48.69
37852;BME280;23691;52.486;4.650;2023-06-14T06:04:19;101769.66;;;22.45;47.97
37852;BME280;23691;52.486;4.650;2023-06-14T06:06:55;101773.38;;;22.50;48.09
37852;BME280;23691;52.486;4.650;2023-06-14T06:09:21;101766.81;;;22.58;47.78
37852;BME280;23691;52.486;4.650;2023-06-14T06:11:46;101773.66;;;22.67;47.74
37852;BME280;23691;52.486;4.650;2023-06-14T06:14:12;101771.94;;;22.73;47.46
37852;BME280;23691;52.486;4.650;2023-06-14T06:16:41;101768.91;;;22.81;47.41
37852;BME280;23691;52.486;4.650;2023-06-14T06:19:06;101774.47;;;22.93;47.34
37852;BME280;23691;52.486;4.650;2023-06-14T06:21:32;101769.44;;;22.97;47.01
37852;BME280;23691;52.486;4.650;2023-06-14T06:23:58;101767.94;;;23.01;47.07
37852;BME280;23691;52.486;4.650;2023-06-14T06:26:23;101777.34;;;23.05;47.19
37852;BME280;23691;52.486;4.650;2023-06-14T06:28:49;101772.25;;;23.08;46.36
37852;BME280;23691;52.486;4.650;2023-06-14T06:31:14;101779.09;;;23.18;46.36
37852;BME280;23691;52.486;4.650;2023-06-14T06:33:41;101784.25;;;23.26;45.84
37852;BME280;23691;52.486;4.650;2023-06-14T06:36:07;101782.06;;;23.34;46.02
37852;BME280;23691;52.486;4.650;2023-06-14T06:38:32;101770.84;;;23.43;45.57
37852;BME280;23691;52.486;4.650;2023-06-14T06:40:58;101776.84;;;23.51;44.86
37852;BME280;23691;52.486;4.650;2023-06-14T06:43:23;101784.72;;;23.60;44.16
37852;BME280;23691;52.486;4.650;2023-06-14T06:45:49;101782.38;;;23.63;44.79
37852;BME280;23691;52.486;4.650;2023-06-14T06:48:14;101789.03;;;23.67;44.87
37852;BME280;23691;52.486;4.650;2023-06-14T06:50:41;101793.81;;;23.72;44.49
37852;BME280;23691;52.486;4.650;2023-06-14T06:53:08;101789.59;;;23.76;44.11
37852;BME280;23691;52.486;4.650;2023-06-14T06:55:33;101796.66;;;23.84;43.98
37852;BME280;23691;52.486;4.650;2023-06-14T06:58:00;101792.28;;;23.94;43.20
37852;BME280;23691;52.486;4.650;2023-06-14T07:00:26;101789.88;;;24.05;42.57
37852;BME280;23691;52.486;4.650;2023-06-14T07:02:54;101800.47;;;24.13;42.36
37852;BME280;23691;52.486;4.650;2023-06-14T07:05:23;101807.72;;;24.19;42.30
37852;BME280;23691;52.486;4.650;2023-06-14T07:07:51;101816.91;;;24.25;41.98
37852;BME280;23691;52.486;4.650;2023-06-14T07:10:17;101815.97;;;24.31;41.62
37852;BME280;23691;52.486;4.650;2023-06-14T07:12:45;101813.63;;;24.34;41.05
37852;BME280;23691;52.486;4.650;2023-06-14T07:15:11;101813.28;;;24.42;40.86
37852;BME280;23691;52.486;4.650;2023-06-14T07:17:37;101808.31;;;24.51;40.47
37852;BME280;23691;52.486;4.650;2023-06-14T07:20:04;101818.69;;;24.61;41.00
37852;BME280;23691;52.486;4.650;2023-06-14T07:22:33;101823.03;;;24.69;40.76
37852;BME280;23691;52.486;4.650;2023-06-14T07:25:01;101816.47;;;24.70;40.40
37852;BME280;23691;52.486;4.650;2023-06-14T07:27:28;101823.84;;;24.69;41.26
37852;BME280;23691;52.486;4.650;2023-06-14T07:29:53;101827.63;;;24.68;40.55
37852;BME280;23691;52.486;4.650;2023-06-14T07:32:19;101818.50;;;24.74;41.07
37852;BME280;23691;52.486;4.650;2023-06-14T07:34:45;101824.00;;;24.86;41.12
37852;BME280;23691;52.486;4.650;2023-06-14T07:37:10;101822.34;;;24.97;40.14
37852;BME280;23691;52.486;4.650;2023-06-14T07:39:36;101827.00;;;25.08;40.18
37852;BME280;23691;52.486;4.650;2023-06-14T07:42:04;101822.38;;;25.20;40.37
37852;BME280;23691;52.486;4.650;2023-06-14T07:44:30;101829.41;;;25.28;39.55
37852;BME280;23691;52.486;4.650;2023-06-14T07:46:59;101833.91;;;25.34;39.58
37852;BME280;23691;52.486;4.650;2023-06-14T07:49:26;101830.69;;;25.37;39.09
37852;BME280;23691;52.486;4.650;2023-06-14T07:51:51;101837.72;;;25.45;39.17
37852;BME280;23691;52.486;4.650;2023-06-14T07:54:17;101834.59;;;25.53;38.89
37852;BME280;23691;52.486;4.650;2023-06-14T07:56:43;101836.13;;;25.61;38.72
37852;BME280;23691;52.486;4.650;2023-06-14T07:59:08;101833.75;;;25.64;38.19
37852;BME280;23691;52.486;4.650;2023-06-14T08:01:34;101843.97;;;25.69;38.03
37852;BME280;23691;52.486;4.650;2023-06-14T08:04:00;101847.28;;;25.83;39.26
37852;BME280;23691;52.486;4.650;2023-06-14T08:06:26;101840.50;;;25.97;38.60
37852;BME280;23691;52.486;4.650;2023-06-14T08:08:55;101843.44;;;26.07;38.81
37852;BME280;23691;52.486;4.650;2023-06-14T08:11:24;101844.13;;;26.15;37.93
37852;BME280;23691;52.486;4.650;2023-06-14T08:13:52;101848.03;;;26.19;37.78
37852;BME280;23691;52.486;4.650;2023-06-14T08:16:20;101846.97;;;26.20;36.73
37852;BME280;23691;52.486;4.650;2023-06-14T08:18:45;101844.91;;;26.27;37.44
37852;BME280;23691;52.486;4.650;2023-06-14T08:21:11;101851.69;;;26.36;37.32
37852;BME280;23691;52.486;4.650;2023-06-14T08:23:36;101853.50;;;26.47;37.36
37852;BME280;23691;52.486;4.650;2023-06-14T08:26:02;101848.72;;;26.54;37.23
37852;BME280;23691;52.486;4.650;2023-06-14T08:28:29;101843.41;;;26.65;37.21
37852;BME280;23691;52.486;4.650;2023-06-14T08:30:55;101848.25;;;26.74;37.07
37852;BME280;23691;52.486;4.650;2023-06-14T08:33:21;101844.84;;;26.84;36.55
37852;BME280;23691;52.486;4.650;2023-06-14T08:35:46;101845.59;;;26.96;37.07
37852;BME280;23691;52.486;4.650;2023-06-14T08:38:12;101841.09;;;27.07;36.50
37852;BME280;23691;52.486;4.650;2023-06-14T08:40:39;101843.78;;;27.19;36.44
37852;BME280;23691;52.486;4.650;2023-06-14T08:43:05;101834.59;;;27.30;36.31
37852;BME280;23691;52.486;4.650;2023-06-14T08:45:31;101845.44;;;27.37;35.80
37852;BME280;23691;52.486;4.650;2023-06-14T08:47:59;101841.47;;;27.50;35.69
37852;BME280;23691;52.486;4.650;2023-06-14T08:50:29;101847.22;;;27.48;34.92
37852;BME280;23691;52.486;4.650;2023-06-14T08:52:58;101833.22;;;27.50;34.68
37852;BME280;23691;52.486;4.650;2023-06-14T08:55:29;101839.56;;;27.50;34.43
37852;BME280;23691;52.486;4.650;2023-06-14T08:57:55;101843.19;;;27.56;34.76
37852;BME280;23691;52.486;4.650;2023-06-14T09:00:26;101838.94;;;27.65;35.15
37852;BME280;23691;52.486;4.650;2023-06-14T09:02:53;101845.72;;;27.79;34.59
37852;BME280;23691;52.486;4.650;2023-06-14T09:05:28;101838.50;;;27.95;34.59
37852;BME280;23691;52.486;4.650;2023-06-14T09:07:54;101843.63;;;28.09;34.20
37852;BME280;23691;52.486;4.650;2023-06-14T09:10:22;101837.94;;;28.20;34.13
37852;BME280;23691;52.486;4.650;2023-06-14T09:12:48;101843.56;;;28.31;34.27
37852;BME280;23691;52.486;4.650;2023-06-14T09:15:17;101841.75;;;28.41;34.15
37852;BME280;23691;52.486;4.650;2023-06-14T09:17:43;101841.88;;;28.52;34.28
37852;BME280;23691;52.486;4.650;2023-06-14T09:20:09;101846.44;;;28.68;33.95
37852;BME280;23691;52.486;4.650;2023-06-14T09:22:37;101852.31;;;28.82;33.73
37852;BME280;23691;52.486;4.650;2023-06-14T09:25:06;101849.09;;;28.90;33.04
37852;BME280;23691;52.486;4.650;2023-06-14T09:27:32;101846.09;;;28.97;33.01
37852;BME280;23691;52.486;4.650;2023-06-14T09:30:05;101852.75;;;29.01;32.20
37852;BME280;23691;52.486;4.650;2023-06-14T09:32:38;101852.50;;;29.02;31.84
37852;BME280;23691;52.486;4.650;2023-06-14T09:35:07;101851.13;;;29.05;31.51
37852;BME280;23691;52.486;4.650;2023-06-14T09:37:34;101852.28;;;29.09;31.29
37852;BME280;23691;52.486;4.650;2023-06-14T09:40:00;101867.19;;;29.13;31.59
37852;BME280;23691;52.486;4.650;2023-06-14T09:42:26;101863.06;;;29.16;30.81
37852;BME280;23691;52.486;4.650;2023-06-14T09:44:54;101850.41;;;29.15;30.65
37852;BME280;23691;52.486;4.650;2023-06-14T09:47:26;101857.03;;;29.19;31.14
37852;BME280;23691;52.486;4.650;2023-06-14T09:49:51;101860.69;;;29.29;31.16
37852;BME280;23691;52.486;4.650;2023-06-14T09:52:24;101857.78;;;29.46;30.91
37852;BME280;23691;52.486;4.650;2023-06-14T09:54:52;101862.19;;;29.52;30.09
37852;BME280;23691;52.486;4.650;2023-06-14T09:57:23;101867.44;;;29.49;29.65
37852;BME280;23691;52.486;4.650;2023-06-14T09:59:57;101863.56;;;29.50;29.54
37852;BME280;23691;52.486;4.650;2023-06-14T10:02:29;101862.22;;;29.58;29.87
37852;BME280;23691;52.486;4.650;2023-06-14T10:05:07;101861.47;;;29.67;29.75
37852;BME280;23691;52.486;4.650;2023-06-14T10:07:48;101855.72;;;29.74;29.24
37852;BME280;23691;52.486;4.650;2023-06-14T10:10:14;101864.28;;;29.83;29.56
37852;BME280;23691;52.486;4.650;2023-06-14T10:12:40;101863.25;;;29.89;29.17
37852;BME280;23691;52.486;4.650;2023-06-14T10:15:08;101860.78;;;29.98;28.97
37852;BME280;23691;52.486;4.650;2023-06-14T10:17:47;101869.63;;;30.05;29.42
37852;BME280;23691;52.486;4.650;2023-06-14T10:20:40;101871.31;;;30.16;28.77
37852;BME280;23691;52.486;4.650;2023-06-14T10:23:18;101868.03;;;30.24;28.31
37852;BME280;23691;52.486;4.650;2023-06-14T10:25:50;101884.09;;;30.32;28.36
37852;BME280;23691;52.486;4.650;2023-06-14T10:28:18;101856.50;;;30.37;28.19
37852;BME280;23691;52.486;4.650;2023-06-14T10:31:17;101864.81;;;30.48;28.29
37852;BME280;23691;52.486;4.650;2023-06-14T10:33:50;101861.50;;;30.56;28.65
37852;BME280;23691;52.486;4.650;2023-06-14T10:41:29;101865.06;;;30.62;27.96
37852;BME280;23691;52.486;4.650;2023-06-14T10:44:31;101867.31;;;30.65;27.68
37852;BME280;23691;52.486;4.650;2023-06-14T10:47:01;101867.88;;;30.72;27.59
37852;BME280;23691;52.486;4.650;2023-06-14T10:49:37;101873.38;;;30.77;27.98
37852;BME280;23691;52.486;4.650;2023-06-14T10:52:14;101872.28;;;30.78;27.71
37852;BME280;23691;52.486;4.650;2023-06-14T10:57:41;101862.34;;;30.72;27.73
37852;BME280;23691;52.486;4.650;2023-06-14T11:00:10;101876.41;;;30.75;28.48
37852;BME280;23691;52.486;4.650;2023-06-14T11:05:56;101871.72;;;30.76;28.39
37852;BME280;23691;52.486;4.650;2023-06-14T11:11:10;101868.72;;;30.83;28.70
37852;BME280;23691;52.486;4.650;2023-06-14T11:13:39;101872.03;;;30.90;28.22
37852;BME280;23691;52.486;4.650;2023-06-14T11:16:13;101866.50;;;30.95;28.48
37852;BME280;23691;52.486;4.650;2023-06-14T11:18:39;101870.06;;;31.11;27.73
37852;BME280;23691;52.486;4.650;2023-06-14T11:21:05;101875.31;;;31.17;27.65
37852;BME280;23691;52.486;4.650;2023-06-14T11:23:31;101861.25;;;31.14;27.09
37852;BME280;23691;52.486;4.650;2023-06-14T11:25:56;101869.53;;;31.09;27.06
37852;BME280;23691;52.486;4.650;2023-06-14T11:28:22;101864.28;;;31.12;27.42
37852;BME280;23691;52.486;4.650;2023-06-14T11:30:59;101866.47;;;31.20;27.01
37852;BME280;23691;52.486;4.650;2023-06-14T11:33:28;101854.56;;;31.25;27.02
37852;BME280;23691;52.486;4.650;2023-06-14T11:35:53;101857.63;;;31.23;26.85
37852;BME280;23691;52.486;4.650;2023-06-14T11:38:19;101857.88;;;31.27;26.99
37852;BME280;23691;52.486;4.650;2023-06-14T11:40:45;101858.44;;;31.39;27.18
37852;BME280;23691;52.486;4.650;2023-06-14T11:43:10;101853.16;;;31.43;27.00
37852;BME280;23691;52.486;4.650;2023-06-14T11:45:37;101861.47;;;31.48;26.21
37852;BME280;23691;52.486;4.650;2023-06-14T11:48:04;101855.94;;;31.48;26.63
37852;BME280;23691;52.486;4.650;2023-06-14T11:50:31;101853.44;;;31.52;26.66
37852;BME280;23691;52.486;4.650;2023-06-14T11:52:59;101854.78;;;31.59;26.21
37852;BME280;23691;52.486;4.650;2023-06-14T11:55:32;101851.44;;;31.73;26.29
37852;BME280;23691;52.486;4.650;2023-06-14T11:58:06;101852.19;;;31.88;25.77
37852;BME280;23691;52.486;4.650;2023-06-14T12:00:32;101848.56;;;31.98;26.09
37852;BME280;23691;52.486;4.650;2023-06-14T12:03:00;101857.41;;;32.00;24.90
37852;BME280;23691;52.486;4.650;2023-06-14T12:05:27;101851.03;;;32.05;25.49
37852;BME280;23691;52.486;4.650;2023-06-14T12:08:03;101861.22;;;32.15;24.94
37852;BME280;23691;52.486;4.650;2023-06-14T12:10:39;101848.75;;;32.17;24.99
37852;BME280;23691;52.486;4.650;2023-06-14T12:13:06;101856.66;;;32.29;24.63
37852;BME280;23691;52.486;4.650;2023-06-14T12:15:31;101857.72;;;32.38;24.91
37852;BME280;23691;52.486;4.650;2023-06-14T12:17:57;101856.88;;;32.43;24.68
37852;BME280;23691;52.486;4.650;2023-06-14T12:20:29;101863.19;;;32.54;24.67
37852;BME280;23691;52.486;4.650;2023-06-14T12:22:56;101858.63;;;32.68;24.55
37852;BME280;23691;52.486;4.650;2023-06-14T12:25:29;101855.28;;;32.71;24.67
37852;BME280;23691;52.486;4.650;2023-06-14T12:27:59;101855.00;;;32.72;24.29
37852;BME280;23691;52.486;4.650;2023-06-14T12:30:25;101860.59;;;32.67;24.52
37852;BME280;23691;52.486;4.650;2023-06-14T12:32:51;101860.09;;;32.60;23.91
37852;BME280;23691;52.486;4.650;2023-06-14T12:35:17;101847.91;;;32.61;23.99
37852;BME280;23691;52.486;4.650;2023-06-14T12:37:46;101855.00;;;32.72;24.06
37852;BME280;23691;52.486;4.650;2023-06-14T12:40:12;101858.59;;;32.73;23.69
37852;BME280;23691;52.486;4.650;2023-06-14T12:42:38;101856.41;;;32.70;23.85
37852;BME280;23691;52.486;4.650;2023-06-14T12:45:05;101870.22;;;32.75;24.40
37852;BME280;23691;52.486;4.650;2023-06-14T12:47:31;101863.81;;;32.80;23.71
37852;BME280;23691;52.486;4.650;2023-06-14T12:49:56;101857.06;;;32.91;24.05
37852;BME280;23691;52.486;4.650;2023-06-14T12:52:22;101864.72;;;33.04;23.68
37852;BME280;23691;52.486;4.650;2023-06-14T12:54:47;101866.63;;;33.09;23.32
37852;BME280;23691;52.486;4.650;2023-06-14T12:57:13;101865.38;;;33.25;23.55
37852;BME280;23691;52.486;4.650;2023-06-14T12:59:38;101860.25;;;33.38;23.37
37852;BME280;23691;52.486;4.650;2023-06-14T13:02:15;101874.56;;;33.45;23.58
37852;BME280;23691;52.486;4.650;2023-06-14T13:04:41;101877.25;;;33.50;23.32
37852;BME280;23691;52.486;4.650;2023-06-14T13:07:06;101860.34;;;33.51;22.49
37852;BME280;23691;52.486;4.650;2023-06-14T13:09:32;101865.84;;;33.56;23.06
37852;BME280;23691;52.486;4.650;2023-06-14T13:11:58;101859.59;;;33.70;23.18